sensor_id;sensor_type;location;lat;lon;timestamp;P1;durP1;ratioP1;P2;durP2;ratioP2
16099;SDS011;8154;50.830;12.082;2023-04-15T00:00:17;0.60;;;0.60;;
16099;SDS011;8154;50.830;12.082;2023-04-15T00:02:43;0.55;;;0.55;;
16099;SDS011;8154;50.830;12.082;2023-04-15T00:05:10;0.70;;;0.70;;
16099;SDS011;8154;50.830;12.082;2023-04-15T00:07:37;0.55;;;0.55;;
16099;SDS011;8154;50.830;12.082;2023-04-15T00:10:05;0.60;;;0.60;;
16099;SDS011;8154;50.830;12.082;2023-04-15T00:12:32;0.68;;;0.68;;
16099;SDS011;8154;50.830;12.082;2023-04-15T00:14:58;0.60;;;0.60;;
16099;SDS011;8154;50.830;12.082;2023-04-15T00:17:24;0.43;;;0.43;;
16099;SDS011;8154;50.830;12.082;2023-04-15T00:19:51;0.40;;;0.40;;
16099;SDS011;8154;50.830;12.082;2023-04-15T00:22:17;0.60;;;0.60;;
16099;SDS011;8154;50.830;12.082;2023-04-15T00:24:43;0.57;;;0.57;;
16099;SDS011;8154;50.830;12.082;2023-04-15T00:27:09;0.60;;;0.60;;
16099;SDS011;8154;50.830;12.082;2023-04-15T01:31:09;0.60;;;0.60;;
16099;SDS011;8154;50.830;12.082;2023-04-15T01:33:39;0.57;;;0.57;;
16099;SDS011;8154;50.830;12.082;2023-04-15T01:36:07;0.60;;;0.60;;
16099;SDS011;8154;50.830;12.082;2023-04-15T01:38:35;0.70;;;0.70;;
16099;SDS011;8154;50.830;12.082;2023-04-15T01:41:02;0.63;;;0.63;;
16099;SDS011;8154;50.830;12.082;2023-04-15T01:43:33;0.52;;;0.52;;
16099;SDS011;8154;50.830;12.082;2023-04-15T01:46:01;0.60;;;0.60;;
16099;SDS011;8154;50.830;12.082;2023-04-15T01:48:28;0.50;;;0.50;;
16099;SDS011;8154;50.830;12.082;2023-04-15T01:50:54;0.60;;;0.60;;
16099;SDS011;8154;50.830;12.082;2023-04-15T01:53:24;0.47;;;0.47;;
16099;SDS011;8154;50.830;12.082;2023-04-15T01:55:50;0.50;;;0.50;;
16099;SDS011;8154;50.830;12.082;2023-04-15T01:58:17;0.50;;;0.50;;
16099;SDS011;8154;50.830;12.082;2023-04-15T02:00:43;0.50;;;0.50;;
16099;SDS011;8154;50.830;12.082;2023-04-15T02:03:09;0.50;;;0.50;;
16099;SDS011;8154;50.830;12.082;2023-04-15T02:05:36;0.63;;;0.63;;
16099;SDS011;8154;50.830;12.082;2023-04-15T02:08:02;0.52;;;0.52;;
16099;SDS011;8154;50.830;12.082;2023-04-15T02:10:28;0.60;;;0.60;;
16099;SDS011;8154;50.830;12.082;2023-04-15T02:12:54;0.50;;;0.50;;
16099;SDS011;8154;50.830;12.082;2023-04-15T02:15:20;0.45;;;0.45;;
16099;SDS011;8154;50.830;12.082;2023-04-15T02:17:47;0.60;;;0.60;;
16099;SDS011;8154;50.830;12.082;2023-04-15T02:20:15;0.60;;;0.60;;
16099;SDS011;8154;50.830;12.082;2023-04-15T02:22:42;0.50;;;0.50;;
16099;SDS011;8154;50.830;12.082;2023-04-15T02:25:09;0.60;;;0.60;;
16099;SDS011;8154;50.830;12.082;2023-04-15T02:27:35;0.55;;;0.55;;
16099;SDS011;8154;50.830;12.082;2023-04-15T02:30:02;0.60;;;0.60;;
16099;SDS011;8154;50.830;12.082;2023-04-15T02:32:28;0.50;;;0.50;;
16099;SDS011;8154;50.830;12.082;2023-04-15T02:34:54;0.50;;;0.50;;
16099;SDS011;8154;50.830;12.082;2023-04-15T02:37:21;0.60;;;0.60;;
16099;SDS011;8154;50.830;12.082;2023-04-15T02:39:47;0.60;;;0.60;;
16099;SDS011;8154;50.830;12.082;2023-04-15T02:42:14;0.50;;;0.50;;
16099;SDS011;8154;50.830;12.082;2023-04-15T02:44:41;0.60;;;0.60;;
16099;SDS011;8154;50.830;12.082;2023-04-15T02:47:09;0.50;;;0.50;;
16099;SDS011;8154;50.830;12.082;2023-04-15T02:49:36;0.70;;;0.70;;
16099;SDS011;8154;50.830;12.082;2023-04-15T02:52:02;0.50;;;0.50;;
16099;SDS011;8154;50.830;12.082;2023-04-15T02:54:28;0.60;;;0.60;;
16099;SDS011;8154;50.830;12.082;2023-04-15T02:56:54;0.60;;;0.60;;
16099;SDS011;8154;50.830;12.082;2023-04-15T02:59:20;0.50;;;0.50;;
16099;SDS011;8154;50.830;12.082;2023-04-15T03:01:47;0.52;;;0.52;;
16099;SDS011;8154;50.830;12.082;2023-04-15T03:04:12;0.50;;;0.50;;
16099;SDS011;8154;50.830;12.082;2023-04-15T03:06:38;0.60;;;0.60;;
16099;SDS011;8154;50.830;12.082;2023-04-15T03:09:05;0.68;;;0.68;;
16099;SDS011;8154;50.830;12.082;2023-04-15T03:11:31;0.40;;;0.40;;
16099;SDS011;8154;50.830;12.082;2023-04-15T03:13:58;0.60;;;0.60;;
16099;SDS011;8154;50.830;12.082;2023-04-15T03:16:24;0.50;;;0.50;;
16099;SDS011;8154;50.830;12.082;2023-04-15T03:18:51;0.60;;;0.60;;
16099;SDS011;8154;50.830;12.082;2023-04-15T03:21:17;0.50;;;0.50;;
16099;SDS011;8154;50.830;12.082;2023-04-15T03:23:45;0.50;;;0.50;;
16099;SDS011;8154;50.830;12.082;2023-04-15T03:26:22;0.50;;;0.50;;
16099;SDS011;8154;50.830;12.082;2023-04-15T03:28:56;0.50;;;0.50;;
16099;SDS011;8154;50.830;12.082;2023-04-15T03:31:23;0.55;;;0.55;;
16099;SDS011;8154;50.830;12.082;2023-04-15T03:33:49;0.50;;;0.50;;
16099;SDS011;8154;50.830;12.082;2023-04-15T03:36:15;0.60;;;0.60;;
16099;SDS011;8154;50.830;12.082;2023-04-15T03:38:41;0.50;;;0.50;;
16099;SDS011;8154;50.830;12.082;2023-04-15T03:41:08;0.50;;;0.50;;
16099;SDS011;8154;50.830;12.082;2023-04-15T03:43:34;0.50;;;0.50;;
16099;SDS011;8154;50.830;12.082;2023-04-15T03:46:00;0.60;;;0.60;;
16099;SDS011;8154;50.830;12.082;2023-04-15T03:48:27;0.50;;;0.50;;
16099;SDS011;8154;50.830;12.082;2023-04-15T03:50:53;0.47;;;0.47;;
16099;SDS011;8154;50.830;12.082;2023-04-15T03:53:21;0.50;;;0.50;;
16099;SDS011;8154;50.830;12.082;2023-04-15T03:55:47;0.60;;;0.60;;
16099;SDS011;8154;50.830;12.082;2023-04-15T03:58:13;0.60;;;0.60;;
16099;SDS011;8154;50.830;12.082;2023-04-15T04:00:39;0.50;;;0.50;;
16099;SDS011;8154;50.830;12.082;2023-04-15T04:03:06;0.52;;;0.52;;
16099;SDS011;8154;50.830;12.082;2023-04-15T04:05:32;0.50;;;0.50;;
16099;SDS011;8154;50.830;12.082;2023-04-15T04:08:01;0.52;;;0.52;;
16099;SDS011;8154;50.830;12.082;2023-04-15T04:10:27;0.50;;;0.50;;
16099;SDS011;8154;50.830;12.082;2023-04-15T04:12:53;0.50;;;0.50;;
16099;SDS011;8154;50.830;12.082;2023-04-15T04:15:19;0.50;;;0.50;;
16099;SDS011;8154;50.830;12.082;2023-04-15T04:17:45;0.68;;;0.68;;
16099;SDS011;8154;50.830;12.082;2023-04-15T04:20:11;0.60;;;0.60;;
16099;SDS011;8154;50.830;12.082;2023-04-15T04:22:38;0.45;;;0.45;;
16099;SDS011;8154;50.830;12.082;2023-04-15T04:25:05;0.60;;;0.60;;
16099;SDS011;8154;50.830;12.082;2023-04-15T04:27:33;0.50;;;0.50;;
16099;SDS011;8154;50.830;12.082;2023-04-15T04:30:00;0.50;;;0.50;;
16099;SDS011;8154;50.830;12.082;2023-04-15T04:32:27;0.40;;;0.40;;
16099;SDS011;8154;50.830;12.082;2023-04-15T04:34:53;0.50;;;0.50;;
16099;SDS011;8154;50.830;12.082;2023-04-15T04:37:19;0.45;;;0.45;;
16099;SDS011;8154;50.830;12.082;2023-04-15T04:39:45;0.60;;;0.60;;
16099;SDS011;8154;50.830;12.082;2023-04-15T04:42:11;0.50;;;0.50;;
16099;SDS011;8154;50.830;12.082;2023-04-15T04:44:37;0.57;;;0.57;;
16099;SDS011;8154;50.830;12.082;2023-04-15T04:47:03;0.50;;;0.50;;
16099;SDS011;8154;50.830;12.082;2023-04-15T04:49:29;0.50;;;0.50;;
16099;SDS011;8154;50.830;12.082;2023-04-15T04:51:55;0.50;;;0.50;;
16099;SDS011;8154;50.830;12.082;2023-04-15T04:54:22;0.50;;;0.50;;
16099;SDS011;8154;50.830;12.082;2023-04-15T04:56:48;0.40;;;0.40;;
16099;SDS011;8154;50.830;12.082;2023-04-15T04:59:14;0.40;;;0.40;;
16099;SDS011;8154;50.830;12.082;2023-04-15T05:01:40;0.50;;;0.50;;
16099;SDS011;8154;50.830;12.082;2023-04-15T05:04:07;0.50;;;0.50;;
16099;SDS011;8154;50.830;12.082;2023-04-15T05:06:34;0.50;;;0.50;;
16099;SDS011;8154;50.830;12.082;2023-04-15T05:09:01;0.40;;;0.40;;
16099;SDS011;8154;50.830;12.082;2023-04-15T05:11:28;0.57;;;0.57;;
16099;SDS011;8154;50.830;12.082;2023-04-15T05:13:54;0.50;;;0.50;;
16099;SDS011;8154;50.830;12.082;2023-04-15T05:16:20;0.43;;;0.43;;
16099;SDS011;8154;50.830;12.082;2023-04-15T05:18:46;0.40;;;0.40;;
16099;SDS011;8154;50.830;12.082;2023-04-15T05:21:12;0.55;;;0.55;;
16099;SDS011;8154;50.830;12.082;2023-04-15T05:23:38;0.50;;;0.50;;
16099;SDS011;8154;50.830;12.082;2023-04-15T05:26:05;0.45;;;0.45;;
16099;SDS011;8154;50.830;12.082;2023-04-15T05:28:31;0.40;;;0.40;;
16099;SDS011;8154;50.830;12.082;2023-04-15T05:30:57;0.50;;;0.50;;
16099;SDS011;8154;50.830;12.082;2023-04-15T05:33:23;0.50;;;0.50;;
16099;SDS011;8154;50.830;12.082;2023-04-15T05:35:49;0.40;;;0.40;;
16099;SDS011;8154;50.830;12.082;2023-04-15T05:38:15;0.50;;;0.50;;
16099;SDS011;8154;50.830;12.082;2023-04-15T05:40:41;0.50;;;0.50;;
16099;SDS011;8154;50.830;12.082;2023-04-15T05:43:10;0.50;;;0.50;;
16099;SDS011;8154;50.830;12.082;2023-04-15T05:45:36;0.50;;;0.50;;
16099;SDS011;8154;50.830;12.082;2023-04-15T05:48:02;0.40;;;0.40;;
16099;SDS011;8154;50.830;12.082;2023-04-15T05:50:28;0.43;;;0.43;;
16099;SDS011;8154;50.830;12.082;2023-04-15T05:52:54;0.50;;;0.50;;
16099;SDS011;8154;50.830;12.082;2023-04-15T05:55:21;0.40;;;0.40;;
16099;SDS011;8154;50.830;12.082;2023-04-15T05:57:47;0.40;;;0.40;;
16099;SDS011;8154;50.830;12.082;2023-04-15T06:00:13;0.50;;;0.50;;
16099;SDS011;8154;50.830;12.082;2023-04-15T06:02:40;0.40;;;0.40;;
16099;SDS011;8154;50.830;12.082;2023-04-15T06:05:06;0.50;;;0.50;;
16099;SDS011;8154;50.830;12.082;2023-04-15T06:07:36;0.40;;;0.40;;
16099;SDS011;8154;50.830;12.082;2023-04-15T06:10:03;0.40;;;0.40;;
16099;SDS011;8154;50.830;12.082;2023-04-15T06:12:29;0.43;;;0.43;;
16099;SDS011;8154;50.830;12.082;2023-04-15T06:14:55;0.47;;;0.47;;
16099;SDS011;8154;50.830;12.082;2023-04-15T06:17:21;0.47;;;0.47;;
16099;SDS011;8154;50.830;12.082;2023-04-15T06:19:47;0.45;;;0.45;;
16099;SDS011;8154;50.830;12.082;2023-04-15T06:22:15;0.50;;;0.50;;
16099;SDS011;8154;50.830;12.082;2023-04-15T06:24:41;0.40;;;0.40;;
16099;SDS011;8154;50.830;12.082;2023-04-15T06:27:07;0.50;;;0.50;;
16099;SDS011;8154;50.830;12.082;2023-04-15T06:29:34;0.40;;;0.40;;
16099;SDS011;8154;50.830;12.082;2023-04-15T06:32:00;0.40;;;0.40;;
16099;SDS011;8154;50.830;12.082;2023-04-15T06:34:26;0.50;;;0.50;;
16099;SDS011;8154;50.830;12.082;2023-04-15T06:36:51;0.38;;;0.38;;
16099;SDS011;8154;50.830;12.082;2023-04-15T06:39:19;0.50;;;0.50;;
16099;SDS011;8154;50.830;12.082;2023-04-15T06:41:45;0.40;;;0.40;;
16099;SDS011;8154;50.830;12.082;2023-04-15T06:44:11;0.40;;;0.40;;
16099;SDS011;8154;50.830;12.082;2023-04-15T06:46:37;0.45;;;0.45;;
16099;SDS011;8154;50.830;12.082;2023-04-15T06:49:04;0.40;;;0.40;;
16099;SDS011;8154;50.830;12.082;2023-04-15T06:51:30;0.38;;;0.38;;
16099;SDS011;8154;50.830;12.082;2023-04-15T06:53:57;0.40;;;0.40;;
16099;SDS011;8154;50.830;12.082;2023-04-15T06:56:23;0.40;;;0.40;;
16099;SDS011;8154;50.830;12.082;2023-04-15T06:58:49;0.50;;;0.50;;
16099;SDS011;8154;50.830;12.082;2023-04-15T07:01:15;0.40;;;0.40;;
16099;SDS011;8154;50.830;12.082;2023-04-15T07:03:41;0.47;;;0.47;;
16099;SDS011;8154;50.830;12.082;2023-04-15T07:06:07;0.35;;;0.35;;
16099;SDS011;8154;50.830;12.082;2023-04-15T07:08:34;0.40;;;0.40;;
16099;SDS011;8154;50.830;12.082;2023-04-15T07:11:00;0.38;;;0.38;;
16099;SDS011;8154;50.830;12.082;2023-04-15T07:13:26;0.40;;;0.40;;
16099;SDS011;8154;50.830;12.082;2023-04-15T07:15:55;0.45;;;0.45;;
16099;SDS011;8154;50.830;12.082;2023-04-15T07:18:21;0.40;;;0.40;;
16099;SDS011;8154;50.830;12.082;2023-04-15T07:20:47;0.35;;;0.35;;
16099;SDS011;8154;50.830;12.082;2023-04-15T07:23:13;0.50;;;0.50;;
16099;SDS011;8154;50.830;12.082;2023-04-15T07:25:39;0.40;;;0.40;;
16099;SDS011;8154;50.830;12.082;2023-04-15T07:28:05;0.40;;;0.40;;
16099;SDS011;8154;50.830;12.082;2023-04-15T07:30:32;0.40;;;0.40;;
16099;SDS011;8154;50.830;12.082;2023-04-15T07:32:59;0.40;;;0.40;;
16099;SDS011;8154;50.830;12.082;2023-04-15T07:35:27;0.40;;;0.40;;
16099;SDS011;8154;50.830;12.082;2023-04-15T07:37:54;0.40;;;0.40;;
16099;SDS011;8154;50.830;12.082;2023-04-15T07:40:20;0.50;;;0.50;;
16099;SDS011;8154;50.830;12.082;2023-04-15T07:42:46;0.50;;;0.50;;
16099;SDS011;8154;50.830;12.082;2023-04-15T07:45:14;0.50;;;0.50;;
16099;SDS011;8154;50.830;12.082;2023-04-15T07:47:40;0.40;;;0.40;;
16099;SDS011;8154;50.830;12.082;2023-04-15T07:50:08;0.40;;;0.40;;
16099;SDS011;8154;50.830;12.082;2023-04-15T07:52:35;0.40;;;0.40;;
16099;SDS011;8154;50.830;12.082;2023-04-15T07:55:06;0.40;;;0.40;;
16099;SDS011;8154;50.830;12.082;2023-04-15T07:57:34;0.40;;;0.40;;
16099;SDS011;8154;50.830;12.082;2023-04-15T08:00:01;0.40;;;0.40;;
16099;SDS011;8154;50.830;12.082;2023-04-15T08:02:29;0.40;;;0.40;;
16099;SDS011;8154;50.830;12.082;2023-04-15T08:04:56;0.30;;;0.30;;
16099;SDS011;8154;50.830;12.082;2023-04-15T08:07:22;0.40;;;0.40;;
16099;SDS011;8154;50.830;12.082;2023-04-15T08:09:48;0.30;;;0.30;;
16099;SDS011;8154;50.830;12.082;2023-04-15T08:12:15;0.40;;;0.40;;
16099;SDS011;8154;50.830;12.082;2023-04-15T08:14:41;0.40;;;0.40;;
16099;SDS011;8154;50.830;12.082;2023-04-15T08:17:08;0.43;;;0.43;;
16099;SDS011;8154;50.830;12.082;2023-04-15T08:19:34;0.50;;;0.50;;
16099;SDS011;8154;50.830;12.082;2023-04-15T08:22:00;0.40;;;0.40;;
16099;SDS011;8154;50.830;12.082;2023-04-15T08:24:27;0.30;;;0.30;;
16099;SDS011;8154;50.830;12.082;2023-04-15T08:26:54;0.38;;;0.38;;
16099;SDS011;8154;50.830;12.082;2023-04-15T08:29:21;0.40;;;0.40;;
16099;SDS011;8154;50.830;12.082;2023-04-15T08:31:47;0.40;;;0.40;;
16099;SDS011;8154;50.830;12.082;2023-04-15T08:34:13;0.30;;;0.30;;
16099;SDS011;8154;50.830;12.082;2023-04-15T08:36:40;0.30;;;0.30;;
16099;SDS011;8154;50.830;12.082;2023-04-15T08:39:07;0.40;;;0.40;;
16099;SDS011;8154;50.830;12.082;2023-04-15T08:41:38;0.40;;;0.40;;
16099;SDS011;8154;50.830;12.082;2023-04-15T08:44:10;0.40;;;0.40;;
16099;SDS011;8154;50.830;12.082;2023-04-15T08:46:37;0.40;;;0.40;;
16099;SDS011;8154;50.830;12.082;2023-04-15T08:49:04;0.50;;;0.50;;
16099;SDS011;8154;50.830;12.082;2023-04-15T08:51:36;0.35;;;0.35;;
16099;SDS011;8154;50.830;12.082;2023-04-15T08:54:06;0.35;;;0.35;;
16099;SDS011;8154;50.830;12.082;2023-04-15T08:56:33;0.40;;;0.40;;
16099;SDS011;8154;50.830;12.082;2023-04-15T08:59:01;0.40;;;0.40;;
16099;SDS011;8154;50.830;12.082;2023-04-15T09:01:28;0.35;;;0.35;;
16099;SDS011;8154;50.830;12.082;2023-04-15T09:03:55;0.45;;;0.45;;
16099;SDS011;8154;50.830;12.082;2023-04-15T09:06:22;0.40;;;0.40;;
16099;SDS011;8154;50.830;12.082;2023-04-15T09:08:51;0.40;;;0.40;;
16099;SDS011;8154;50.830;12.082;2023-04-15T09:11:17;0.30;;;0.30;;
16099;SDS011;8154;50.830;12.082;2023-04-15T09:13:44;0.30;;;0.30;;
16099;SDS011;8154;50.830;12.082;2023-04-15T09:16:12;0.30;;;0.30;;
16099;SDS011;8154;50.830;12.082;2023-04-15T09:18:38;0.30;;;0.30;;
16099;SDS011;8154;50.830;12.082;2023-04-15T09:21:05;0.40;;;0.40;;
16099;SDS011;8154;50.830;12.082;2023-04-15T09:23:38;0.45;;;0.45;;
16099;SDS011;8154;50.830;12.082;2023-04-15T09:26:06;0.40;;;0.40;;
16099;SDS011;8154;50.830;12.082;2023-04-15T09:28:33;0.40;;;0.40;;
16099;SDS011;8154;50.830;12.082;2023-04-15T09:31:07;0.30;;;0.30;;
16099;SDS011;8154;50.830;12.082;2023-04-15T09:33:34;0.40;;;0.40;;
16099;SDS011;8154;50.830;12.082;2023-04-15T09:36:02;0.35;;;0.35;;
16099;SDS011;8154;50.830;12.082;2023-04-15T09:38:29;0.40;;;0.40;;
16099;SDS011;8154;50.830;12.082;2023-04-15T09:40:56;0.40;;;0.40;;
16099;SDS011;8154;50.830;12.082;2023-04-15T09:43:39;0.30;;;0.30;;
16099;SDS011;8154;50.830;12.082;2023-04-15T09:46:06;0.22;;;0.22;;
16099;SDS011;8154;50.830;12.082;2023-04-15T09:48:32;0.30;;;0.30;;
16099;SDS011;8154;50.830;12.082;2023-04-15T09:50:58;0.30;;;0.30;;
16099;SDS011;8154;50.830;12.082;2023-04-15T09:53:26;0.38;;;0.38;;
16099;SDS011;8154;50.830;12.082;2023-04-15T09:55:56;0.30;;;0.30;;
16099;SDS011;8154;50.830;12.082;2023-04-15T09:58:26;0.40;;;0.40;;
16099;SDS011;8154;50.830;12.082;2023-04-15T10:00:57;0.30;;;0.30;;
16099;SDS011;8154;50.830;12.082;2023-04-15T10:03:28;0.40;;;0.40;;
16099;SDS011;8154;50.830;12.082;2023-04-15T10:05:57;0.30;;;0.30;;
16099;SDS011;8154;50.830;12.082;2023-04-15T10:08:25;0.40;;;0.40;;
16099;SDS011;8154;50.830;12.082;2023-04-15T10:10:53;0.35;;;0.35;;
16099;SDS011;8154;50.830;12.082;2023-04-15T10:13:20;0.40;;;0.40;;
16099;SDS011;8154;50.830;12.082;2023-04-15T10:15:55;0.30;;;0.30;;
16099;SDS011;8154;50.830;12.082;2023-04-15T10:18:24;0.20;;;0.20;;
16099;SDS011;8154;50.830;12.082;2023-04-15T10:20:52;0.38;;;0.38;;
16099;SDS011;8154;50.830;12.082;2023-04-15T10:23:18;0.20;;;0.20;;
16099;SDS011;8154;50.830;12.082;2023-04-15T10:25:46;0.28;;;0.28;;
16099;SDS011;8154;50.830;12.082;2023-04-15T10:28:15;0.30;;;0.30;;
16099;SDS011;8154;50.830;12.082;2023-04-15T10:30:59;0.40;;;0.40;;
16099;SDS011;8154;50.830;12.082;2023-04-15T10:33:26;0.30;;;0.30;;
16099;SDS011;8154;50.830;12.082;2023-04-15T11:34:22;0.25;;;0.25;;
16099;SDS011;8154;50.830;12.082;2023-04-15T11:36:49;0.20;;;0.20;;
16099;SDS011;8154;50.830;12.082;2023-04-15T11:39:16;0.30;;;0.30;;
16099;SDS011;8154;50.830;12.082;2023-04-15T11:41:42;0.40;;;0.40;;
16099;SDS011;8154;50.830;12.082;2023-04-15T11:44:15;0.40;;;0.40;;
16099;SDS011;8154;50.830;12.082;2023-04-15T11:46:42;0.20;;;0.20;;
16099;SDS011;8154;50.830;12.082;2023-04-15T11:49:08;0.30;;;0.30;;
16099;SDS011;8154;50.830;12.082;2023-04-15T11:51:35;0.30;;;0.30;;
16099;SDS011;8154;50.830;12.082;2023-04-15T11:54:01;0.30;;;0.30;;
16099;SDS011;8154;50.830;12.082;2023-04-15T11:56:28;0.30;;;0.30;;
16099;SDS011;8154;50.830;12.082;2023-04-15T11:58:55;0.30;;;0.30;;
16099;SDS011;8154;50.830;12.082;2023-04-15T12:01:40;0.30;;;0.30;;
16099;SDS011;8154;50.830;12.082;2023-04-15T12:04:11;0.30;;;0.30;;
16099;SDS011;8154;50.830;12.082;2023-04-15T12:06:39;0.30;;;0.30;;
16099;SDS011;8154;50.830;12.082;2023-04-15T12:11:41;0.40;;;0.40;;
16099;SDS011;8154;50.830;12.082;2023-04-15T12:17:04;0.30;;;0.30;;
16099;SDS011;8154;50.830;12.082;2023-04-15T12:19:54;0.25;;;0.25;;
16099;SDS011;8154;50.830;12.082;2023-04-15T12:22:21;0.93;;;0.35;;
16099;SDS011;8154;50.830;12.082;2023-04-15T12:24:47;0.30;;;0.30;;
16099;SDS011;8154;50.830;12.082;2023-04-15T12:27:24;0.25;;;0.25;;
16099;SDS011;8154;50.830;12.082;2023-04-15T12:30:02;0.30;;;0.30;;
16099;SDS011;8154;50.830;12.082;2023-04-15T12:32:29;0.30;;;0.30;;
16099;SDS011;8154;50.830;12.082;2023-04-15T12:35:00;0.30;;;0.30;;
16099;SDS011;8154;50.830;12.082;2023-04-15T12:37:26;0.30;;;0.30;;
16099;SDS011;8154;50.830;12.082;2023-04-15T12:39:52;0.40;;;0.40;;
16099;SDS011;8154;50.830;12.082;2023-04-15T12:42:19;0.30;;;0.30;;
16099;SDS011;8154;50.830;12.082;2023-04-15T12:44:45;0.30;;;0.30;;
16099;SDS011;8154;50.830;12.082;2023-04-15T12:47:11;0.22;;;0.22;;
16099;SDS011;8154;50.830;12.082;2023-04-15T12:49:38;0.40;;;0.40;;
16099;SDS011;8154;50.830;12.082;2023-04-15T12:52:08;0.30;;;0.30;;
16099;SDS011;8154;50.830;12.082;2023-04-15T12:54:34;0.30;;;0.30;;
16099;SDS011;8154;50.830;12.082;2023-04-15T12:57:01;0.22;;;0.22;;
16099;SDS011;8154;50.830;12.082;2023-04-15T12:59:27;0.30;;;0.30;;
16099;SDS011;8154;50.830;12.082;2023-04-15T13:01:53;0.30;;;0.30;;
16099;SDS011;8154;50.830;12.082;2023-04-15T13:04:20;0.30;;;0.30;;
16099;SDS011;8154;50.830;12.082;2023-04-15T13:06:46;0.22;;;0.22;;
16099;SDS011;8154;50.830;12.082;2023-04-15T13:09:13;0.30;;;0.30;;
16099;SDS011;8154;50.830;12.082;2023-04-15T13:11:39;0.30;;;0.30;;
16099;SDS011;8154;50.830;12.082;2023-04-15T13:14:07;0.30;;;0.30;;
16099;SDS011;8154;50.830;12.082;2023-04-15T13:16:34;0.30;;;0.30;;
16099;SDS011;8154;50.830;12.082;2023-04-15T13:19:01;0.32;;;0.32;;
16099;SDS011;8154;50.830;12.082;2023-04-15T13:21:28;0.20;;;0.20;;
16099;SDS011;8154;50.830;12.082;2023-04-15T13:23:56;0.22;;;0.22;;
16099;SDS011;8154;50.830;12.082;2023-04-15T13:26:23;0.40;;;0.40;;
16099;SDS011;8154;50.830;12.082;2023-04-15T13:28:51;0.22;;;0.22;;
16099;SDS011;8154;50.830;12.082;2023-04-15T13:31:17;0.50;;;0.50;;
16099;SDS011;8154;50.830;12.082;2023-04-15T13:33:43;0.20;;;0.20;;
16099;SDS011;8154;50.830;12.082;2023-04-15T13:36:09;0.38;;;0.38;;
16099;SDS011;8154;50.830;12.082;2023-04-15T13:38:35;0.30;;;0.30;;
16099;SDS011;8154;50.830;12.082;2023-04-15T13:41:01;0.50;;;0.50;;
16099;SDS011;8154;50.830;12.082;2023-04-15T13:43:29;0.30;;;0.30;;
16099;SDS011;8154;50.830;12.082;2023-04-15T13:45:57;0.20;;;0.20;;
16099;SDS011;8154;50.830;12.082;2023-04-15T13:48:24;0.30;;;0.30;;
16099;SDS011;8154;50.830;12.082;2023-04-15T13:50:50;0.20;;;0.20;;
16099;SDS011;8154;50.830;12.082;2023-04-15T13:53:16;0.30;;;0.30;;
16099;SDS011;8154;50.830;12.082;2023-04-15T13:55:42;0.30;;;0.30;;
16099;SDS011;8154;50.830;12.082;2023-04-15T13:58:08;0.30;;;0.30;;
16099;SDS011;8154;50.830;12.082;2023-04-15T14:00:36;0.38;;;0.38;;
16099;SDS011;8154;50.830;12.082;2023-04-15T14:03:02;0.40;;;0.40;;
16099;SDS011;8154;50.830;12.082;2023-04-15T14:05:28;0.20;;;0.20;;
16099;SDS011;8154;50.830;12.082;2023-04-15T14:07:54;0.30;;;0.30;;
16099;SDS011;8154;50.830;12.082;2023-04-15T14:10:20;0.30;;;0.30;;
16099;SDS011;8154;50.830;12.082;2023-04-15T14:12:46;0.20;;;0.20;;
16099;SDS011;8154;50.830;12.082;2023-04-15T14:15:12;0.40;;;0.40;;
16099;SDS011;8154;50.830;12.082;2023-04-15T14:17:38;0.20;;;0.20;;
16099;SDS011;8154;50.830;12.082;2023-04-15T14:20:07;0.30;;;0.30;;
16099;SDS011;8154;50.830;12.082;2023-04-15T14:22:34;0.30;;;0.30;;
16099;SDS011;8154;50.830;12.082;2023-04-15T14:25:00;0.30;;;0.30;;
16099;SDS011;8154;50.830;12.082;2023-04-15T14:27:26;0.40;;;0.40;;
16099;SDS011;8154;50.830;12.082;2023-04-15T14:29:53;0.30;;;0.30;;
16099;SDS011;8154;50.830;12.082;2023-04-15T14:32:20;0.28;;;0.28;;
16099;SDS011;8154;50.830;12.082;2023-04-15T14:34:46;0.28;;;0.28;;
16099;SDS011;8154;50.830;12.082;2023-04-15T14:37:13;0.30;;;0.30;;
16099;SDS011;8154;50.830;12.082;2023-04-15T14:39:38;0.25;;;0.22;;
16099;SDS011;8154;50.830;12.082;2023-04-15T14:42:06;0.30;;;0.30;;
16099;SDS011;8154;50.830;12.082;2023-04-15T14:44:31;0.20;;;0.20;;
16099;SDS011;8154;50.830;12.082;2023-04-15T14:46:57;0.30;;;0.30;;
16099;SDS011;8154;50.830;12.082;2023-04-15T14:49:24;0.30;;;0.30;;
16099;SDS011;8154;50.830;12.082;2023-04-15T14:51:50;0.30;;;0.30;;
16099;SDS011;8154;50.830;12.082;2023-04-15T14:54:16;0.30;;;0.30;;
16099;SDS011;8154;50.830;12.082;2023-04-15T14:56:42;0.30;;;0.30;;
16099;SDS011;8154;50.830;12.082;2023-04-15T14:59:09;0.30;;;0.30;;
16099;SDS011;8154;50.830;12.082;2023-04-15T15:01:35;0.32;;;0.32;;
16099;SDS011;8154;50.830;12.082;2023-04-15T15:04:01;0.30;;;0.30;;
16099;SDS011;8154;50.830;12.082;2023-04-15T15:06:27;0.32;;;0.32;;
16099;SDS011;8154;50.830;12.082;2023-04-15T15:08:53;0.40;;;0.40;;
16099;SDS011;8154;50.830;12.082;2023-04-15T15:11:19;0.28;;;0.28;;
16099;SDS011;8154;50.830;12.082;2023-04-15T15:13:45;0.30;;;0.30;;
16099;SDS011;8154;50.830;12.082;2023-04-15T15:16:11;0.30;;;0.30;;
16099;SDS011;8154;50.830;12.082;2023-04-15T15:18:38;0.32;;;0.32;;
16099;SDS011;8154;50.830;12.082;2023-04-15T15:21:04;0.30;;;0.30;;
16099;SDS011;8154;50.830;12.082;2023-04-15T15:23:30;0.30;;;0.30;;
16099;SDS011;8154;50.830;12.082;2023-04-15T15:25:56;0.30;;;0.30;;
16099;SDS011;8154;50.830;12.082;2023-04-15T15:28:24;0.40;;;0.40;;
16099;SDS011;8154;50.830;12.082;2023-04-15T15:30:50;0.38;;;0.38;;
16099;SDS011;8154;50.830;12.082;2023-04-15T15:33:16;0.30;;;0.30;;
16099;SDS011;8154;50.830;12.082;2023-04-15T15:35:42;0.30;;;0.30;;
16099;SDS011;8154;50.830;12.082;2023-04-15T15:38:10;0.40;;;0.40;;
16099;SDS011;8154;50.830;12.082;2023-04-15T15:40:37;0.30;;;0.30;;
16099;SDS011;8154;50.830;12.082;2023-04-15T15:43:03;0.30;;;0.30;;
16099;SDS011;8154;50.830;12.082;2023-04-15T15:45:29;0.40;;;0.40;;
16099;SDS011;8154;50.830;12.082;2023-04-15T15:47:56;0.30;;;0.30;;
16099;SDS011;8154;50.830;12.082;2023-04-15T15:50:23;0.30;;;0.30;;
16099;SDS011;8154;50.830;12.082;2023-04-15T15:52:50;0.22;;;0.22;;
16099;SDS011;8154;50.830;12.082;2023-04-15T15:55:16;0.20;;;0.20;;
16099;SDS011;8154;50.830;12.082;2023-04-15T15:57:42;0.30;;;0.30;;
16099;SDS011;8154;50.830;12.082;2023-04-15T16:00:27;0.30;;;0.30;;
16099;SDS011;8154;50.830;12.082;2023-04-15T16:02:57;0.50;;;0.50;;
16099;SDS011;8154;50.830;12.082;2023-04-15T16:05:23;0.40;;;0.40;;
16099;SDS011;8154;50.830;12.082;2023-04-15T16:07:53;0.40;;;0.40;;
16099;SDS011;8154;50.830;12.082;2023-04-15T16:10:21;0.43;;;0.43;;
16099;SDS011;8154;50.830;12.082;2023-04-15T16:12:47;0.40;;;0.40;;
16099;SDS011;8154;50.830;12.082;2023-04-15T16:15:14;0.40;;;0.40;;
16099;SDS011;8154;50.830;12.082;2023-04-15T16:17:40;0.30;;;0.30;;
16099;SDS011;8154;50.830;12.082;2023-04-15T16:20:06;0.30;;;0.30;;
16099;SDS011;8154;50.830;12.082;2023-04-15T16:22:33;0.30;;;0.30;;
16099;SDS011;8154;50.830;12.082;2023-04-15T16:25:00;0.40;;;0.40;;
16099;SDS011;8154;50.830;12.082;2023-04-15T16:27:26;0.30;;;0.30;;
16099;SDS011;8154;50.830;12.082;2023-04-15T16:29:54;0.30;;;0.30;;
16099;SDS011;8154;50.830;12.082;2023-04-15T16:32:21;0.35;;;0.35;;
16099;SDS011;8154;50.830;12.082;2023-04-15T16:34:47;0.40;;;0.40;;
16099;SDS011;8154;50.830;12.082;2023-04-15T16:37:13;0.30;;;0.30;;
16099;SDS011;8154;50.830;12.082;2023-04-15T16:39:39;0.40;;;0.40;;
16099;SDS011;8154;50.830;12.082;2023-04-15T16:42:14;0.32;;;0.32;;
16099;SDS011;8154;50.830;12.082;2023-04-15T16:44:40;0.50;;;0.50;;
16099;SDS011;8154;50.830;12.082;2023-04-15T16:47:06;0.40;;;0.40;;
16099;SDS011;8154;50.830;12.082;2023-04-15T16:49:36;0.40;;;0.40;;
16099;SDS011;8154;50.830;12.082;2023-04-15T16:52:02;0.40;;;0.40;;